sensor_id;sensor_type;location;lat;lon;timestamp;pressure;altitude;pressure_sealevel;temperature;humidity
8280;BME280;8335;42.646;23.380;2023-04-05T00:01:58;141732.47;;;0.43;100.00
8280;BME280;8335;42.646;23.380;2023-04-05T00:04:25;141744.78;;;0.48;100.00
8280;BME280;8335;42.646;23.380;2023-04-05T00:06:53;141729.97;;;0.42;100.00
8280;BME280;8335;42.646;23.380;2023-04-05T00:09:21;141726.28;;;0.41;100.00
8280;BME280;8335;42.646;23.380;2023-04-05T00:11:48;141712.72;;;0.35;100.00
8280;BME280;8335;42.646;23.380;2023-04-05T00:14:15;141712.72;;;0.35;100.00
8280;BME280;8335;42.646;23.380;2023-04-05T00:16:43;141725.06;;;0.40;100.00
8280;BME280;8335;42.646;23.380;2023-04-05T00:19:10;141753.44;;;0.52;100.00
8280;BME280;8335;42.646;23.380;2023-04-05T00:21:38;141762.03;;;0.55;100.00
8280;BME280;8335;42.646;23.380;2023-04-05T00:24:05;141747.22;;;0.49;100.00
8280;BME280;8335;42.646;23.380;2023-04-05T00:26:39;141747.22;;;0.49;100.00
8280;BME280;8335;42.646;23.380;2023-04-05T00:29:07;141739.84;;;0.46;100.00
8280;BME280;8335;42.646;23.380;2023-04-05T00:31:33;141746.00;;;0.49;100.00
8280;BME280;8335;42.646;23.380;2023-04-05T00:34:02;141759.56;;;0.54;100.00
8280;BME280;8335;42.646;23.380;2023-04-05T00:36:30;141754.66;;;0.52;100.00
8280;BME280;8335;42.646;23.380;2023-04-05T00:38:56;141743.53;;;0.48;100.00
8280;BME280;8335;42.646;23.380;2023-04-05T00:41:23;141747.22;;;0.49;100.00
8280;BME280;8335;42.646;23.380;2023-04-05T00:43:50;141741.09;;;0.47;100.00
8280;BME280;8335;42.646;23.380;2023-04-05T00:46:16;141765.72;;;0.57;100.00
8280;BME280;8335;42.646;23.380;2023-04-05T00:48:43;141670.84;;;0.18;100.00
8280;BME280;8335;42.646;23.380;2023-04-05T00:51:12;141746.00;;;0.49;100.00
8280;BME280;8335;42.646;23.380;2023-04-05T00:53:39;141728.75;;;0.42;100.00
8280;BME280;8335;42.646;23.380;2023-04-05T00:56:07;141741.09;;;0.47;100.00
8280;BME280;8335;42.646;23.380;2023-04-05T00:58:34;141736.16;;;0.45;100.00
8280;BME280;8335;42.646;23.380;2023-04-05T01:01:06;141742.31;;;0.47;100.00
8280;BME280;8335;42.646;23.380;2023-04-05T01:03:40;141726.28;;;0.41;100.00
8280;BME280;8335;42.646;23.380;2023-04-05T01:06:21;141739.84;;;0.46;100.00
8280;BME280;8335;42.646;23.380;2023-04-05T01:08:59;141748.47;;;0.50;100.00
8280;BME280;8335;42.646;23.380;2023-04-05T01:11:29;141743.53;;;0.48;100.00
8280;BME280;8335;42.646;23.380;2023-04-05T01:13:58;141725.06;;;0.40;100.00
8280;BME280;8335;42.646;23.380;2023-04-05T01:16:25;141733.72;;;0.44;100.00
8280;BME280;8335;42.646;23.380;2023-04-05T01:18:52;141715.22;;;0.36;100.00
8280;BME280;8335;42.646;23.380;2023-04-05T01:21:53;141710.28;;;0.34;100.00
8280;BME280;8335;42.646;23.380;2023-04-05T01:24:48;141700.44;;;0.30;100.00
8280;BME280;8335;42.646;23.380;2023-04-05T01:27:20;141727.53;;;0.41;100.00
8280;BME280;8335;42.646;23.380;2023-04-05T01:29:58;141721.38;;;0.39;100.00
8280;BME280;8335;42.646;23.380;2023-04-05T01:32:49;141728.75;;;0.42;100.00
8280;BME280;8335;42.646;23.380;2023-04-05T01:35:23;141733.72;;;0.44;100.00
8280;BME280;8335;42.646;23.380;2023-04-05T01:37:54;141700.44;;;0.30;100.00
8280;BME280;8335;42.646;23.380;2023-04-05T01:40:23;141733.72;;;0.44;100.00
8280;BME280;8335;42.646;23.380;2023-04-05T01:42:50;141752.19;;;0.51;100.00
8280;BME280;8335;42.646;23.380;2023-04-05T01:45:18;141741.09;;;0.47;100.00
8280;BME280;8335;42.646;23.380;2023-04-05T01:47:45;141727.53;;;0.41;100.00
8280;BME280;8335;42.646;23.380;2023-04-05T01:50:11;141722.59;;;0.39;100.00
8280;BME280;8335;42.646;23.380;2023-04-05T01:52:38;141728.75;;;0.42;100.00
8280;BME280;8335;42.646;23.380;2023-04-05T01:55:06;141752.19;;;0.51;100.00
8280;BME280;8335;42.646;23.380;2023-04-05T01:57:32;141757.13;;;0.53;100.00
8280;BME280;8335;42.646;23.380;2023-04-05T01:59:59;141750.97;;;0.51;100.00
8280;BME280;8335;42.646;23.380;2023-04-05T02:02:27;141760.81;;;0.55;100.00
8280;BME280;8335;42.646;23.380;2023-04-05T02:04:54;141759.56;;;0.54;100.00
8280;BME280;8335;42.646;23.380;2023-04-05T02:07:21;141774.38;;;0.61;100.00
8280;BME280;8335;42.646;23.380;2023-04-05T02:09:48;141803.97;;;0.73;100.00
8280;BME280;8335;42.646;23.380;2023-04-05T02:12:15;141795.31;;;0.69;100.00
8280;BME280;8335;42.646;23.380;2023-04-05T02:14:42;141794.06;;;0.69;100.00
8280;BME280;8335;42.646;23.380;2023-04-05T02:17:08;141806.41;;;0.74;100.00
8280;BME280;8335;42.646;23.380;2023-04-05T02:19:37;141789.16;;;0.67;100.00
8280;BME280;8335;42.646;23.380;2023-04-05T02:22:06;141752.19;;;0.51;100.00
8280;BME280;8335;42.646;23.380;2023-04-05T02:24:33;141807.66;;;0.74;100.00
8280;BME280;8335;42.646;23.380;2023-04-05T02:27:00;141810.09;;;0.75;100.00
8280;BME280;8335;42.646;23.380;2023-04-05T02:29:27;141790.38;;;0.67;100.00
8280;BME280;8335;42.646;23.380;2023-04-05T02:31:53;141789.16;;;0.67;100.00
8280;BME280;8335;42.646;23.380;2023-04-05T02:34:20;141784.25;;;0.65;100.00
8280;BME280;8335;42.646;23.380;2023-04-05T02:36:50;141779.28;;;0.63;100.00
8280;BME280;8335;42.646;23.380;2023-04-05T02:39:17;141782.97;;;0.64;100.00
8280;BME280;8335;42.646;23.380;2023-04-05T02:41:44;141779.28;;;0.63;100.00
8280;BME280;8335;42.646;23.380;2023-04-05T02:44:11;141767.00;;;0.58;100.00
8280;BME280;8335;42.646;23.380;2023-04-05T02:46:37;141787.94;;;0.66;100.00
8280;BME280;8335;42.646;23.380;2023-04-05T02:49:05;141778.06;;;0.62;100.00
8280;BME280;8335;42.646;23.380;2023-04-05T02:51:31;141787.94;;;0.66;100.00
8280;BME280;8335;42.646;23.380;2023-04-05T02:54:01;141799.00;;;0.71;100.00
8280;BME280;8335;42.646;23.380;2023-04-05T02:56:28;141816.25;;;0.78;100.00
8280;BME280;8335;42.646;23.380;2023-04-05T02:58:55;141823.69;;;0.81;100.00
8280;BME280;8335;42.646;23.380;2023-04-05T03:01:22;141805.19;;;0.73;100.00
8280;BME280;8335;42.646;23.380;2023-04-05T03:03:49;141802.72;;;0.72;100.00
8280;BME280;8335;42.646;23.380;2023-04-05T03:06:16;141803.97;;;0.73;100.00
8280;BME280;8335;42.646;23.380;2023-04-05T03:08:42;141801.50;;;0.72;100.00
8280;BME280;8335;42.646;23.380;2023-04-05T03:11:13;141669.63;;;0.17;100.00
8280;BME280;8335;42.646;23.380;2023-04-05T03:13:40;141813.78;;;0.77;100.00
8280;BME280;8335;42.646;23.380;2023-04-05T03:16:07;141815.03;;;0.77;100.00
8280;BME280;8335;42.646;23.380;2023-04-05T03:18:34;141836.03;;;0.86;100.00
8280;BME280;8335;42.646;23.380;2023-04-05T03:21:00;141829.81;;;0.83;100.00
8280;BME280;8335;42.646;23.380;2023-04-05T03:23:29;141849.53;;;0.92;100.00
8280;BME280;8335;42.646;23.380;2023-04-05T03:25:57;141854.50;;;0.94;100.00
8280;BME280;8335;42.646;23.380;2023-04-05T03:28:26;141827.38;;;0.82;100.00
8280;BME280;8335;42.646;23.380;2023-04-05T03:30:53;141802.72;;;0.72;100.00
8280;BME280;8335;42.646;23.380;2023-04-05T03:33:20;141805.19;;;0.73;100.00
8280;BME280;8335;42.646;23.380;2023-04-05T03:35:47;141807.66;;;0.74;100.00
8280;BME280;8335;42.646;23.380;2023-04-05T03:38:14;141811.34;;;0.76;100.00
8280;BME280;8335;42.646;23.380;2023-04-05T03:40:41;141842.16;;;0.89;100.00
8280;BME280;8335;42.646;23.380;2023-04-05T03:43:08;141840.94;;;0.88;100.00
8280;BME280;8335;42.646;23.380;2023-04-05T03:45:36;141832.28;;;0.85;100.00
8280;BME280;8335;42.646;23.380;2023-04-05T03:48:03;141817.47;;;0.78;100.00
8280;BME280;8335;42.646;23.380;2023-04-05T03:50:30;141810.09;;;0.75;100.00
8280;BME280;8335;42.646;23.380;2023-04-05T03:52:57;141810.09;;;0.75;100.00
8280;BME280;8335;42.646;23.380;2023-04-05T03:55:24;141808.88;;;0.75;100.00
8280;BME280;8335;42.646;23.380;2023-04-05T03:57:51;141803.97;;;0.73;100.00
8280;BME280;8335;42.646;23.380;2023-04-05T04:00:18;141826.13;;;0.82;100.00
8280;BME280;8335;42.646;23.380;2023-04-05T04:02:47;141834.75;;;0.86;100.00
8280;BME280;8335;42.646;23.380;2023-04-05T04:05:14;141840.94;;;0.88;100.00
8280;BME280;8335;42.646;23.380;2023-04-05T04:07:42;141828.59;;;0.83;100.00
8280;BME280;8335;42.646;23.380;2023-04-05T04:10:16;141855.75;;;0.94;100.00
8280;BME280;8335;42.646;23.380;2023-04-05T04:12:43;141844.63;;;0.90;100.00
8280;BME280;8335;42.646;23.380;2023-04-05T04:15:10;141833.50;;;0.85;100.00
8280;BME280;8335;42.646;23.380;2023-04-05T04:17:38;141823.69;;;0.81;100.00
8280;BME280;8335;42.646;23.380;2023-04-05T04:20:08;141789.16;;;0.67;100.00
8280;BME280;8335;42.646;23.380;2023-04-05T04:22:36;141822.44;;;0.80;100.00
8280;BME280;8335;42.646;23.380;2023-04-05T04:25:05;141796.53;;;0.70;100.00
8280;BME280;8335;42.646;23.380;2023-04-05T04:27:35;141806.41;;;0.74;100.00
8280;BME280;8335;42.646;23.380;2023-04-05T04:30:05;141807.66;;;0.74;100.00
8280;BME280;8335;42.646;23.380;2023-04-05T04:32:35;141769.44;;;0.59;100.00
8280;BME280;8335;42.646;23.380;2023-04-05T04:35:19;141828.59;;;0.83;100.00
8280;BME280;8335;42.646;23.380;2023-04-05T04:37:51;141829.81;;;0.83;100.00
8280;BME280;8335;42.646;23.380;2023-04-05T04:40:19;141824.91;;;0.81;100.00
8280;BME280;8335;42.646;23.380;2023-04-05T04:42:47;141844.63;;;0.90;100.00
8280;BME280;8335;42.646;23.380;2023-04-05T04:45:15;141850.78;;;0.92;100.00
8280;BME280;8335;42.646;23.380;2023-04-05T04:47:42;141847.09;;;0.91;100.00
8280;BME280;8335;42.646;23.380;2023-04-05T04:50:09;141850.78;;;0.92;100.00
8280;BME280;8335;42.646;23.380;2023-04-05T04:52:38;141885.28;;;1.06;100.00
8280;BME280;8335;42.646;23.380;2023-04-05T04:55:06;141902.56;;;1.14;100.00
8280;BME280;8335;42.646;23.380;2023-04-05T04:57:33;141908.75;;;1.16;100.00
8280;BME280;8335;42.646;23.380;2023-04-05T05:00:00;141932.16;;;1.26;100.00
8280;BME280;8335;42.646;23.380;2023-04-05T05:02:27;141930.94;;;1.25;100.00
8280;BME280;8335;42.646;23.380;2023-04-05T05:04:53;141949.44;;;1.33;100.00
8280;BME280;8335;42.646;23.380;2023-04-05T05:07:20;141948.19;;;1.32;100.00
8280;BME280;8335;42.646;23.380;2023-04-05T05:09:48;141932.16;;;1.26;100.00
8280;BME280;8335;42.646;23.380;2023-04-05T05:12:18;141937.09;;;1.28;100.00
8280;BME280;8335;42.646;23.380;2023-04-05T05:14:46;141923.56;;;1.22;100.00
8280;BME280;8335;42.646;23.380;2023-04-05T05:17:13;141917.38;;;1.20;100.00
8280;BME280;8335;42.646;23.380;2023-04-05T05:19:40;141926.03;;;1.23;100.00
8280;BME280;8335;42.646;23.380;2023-04-05T05:22:07;141951.88;;;1.34;100.00
8280;BME280;8335;42.646;23.380;2023-04-05T05:24:33;141951.88;;;1.34;100.00
8280;BME280;8335;42.646;23.380;2023-04-05T05:27:01;141945.75;;;1.31;100.00
8280;BME280;8335;42.646;23.380;2023-04-05T05:29:28;141942.06;;;1.30;100.00
8280;BME280;8335;42.646;23.380;2023-04-05T05:31:56;141942.06;;;1.30;100.00
8280;BME280;8335;42.646;23.380;2023-04-05T05:34:22;141943.28;;;1.30;100.00
8280;BME280;8335;42.646;23.380;2023-04-05T05:36:50;141946.97;;;1.32;100.00
8280;BME280;8335;42.646;23.380;2023-04-05T05:39:17;141960.53;;;1.37;100.00
8280;BME280;8335;42.646;23.380;2023-04-05T05:41:45;141981.50;;;1.46;100.00
8280;BME280;8335;42.646;23.380;2023-04-05T05:44:13;142011.13;;;1.58;100.00
8280;BME280;8335;42.646;23.380;2023-04-05T05:46:39;141982.72;;;1.47;100.00
8280;BME280;8335;42.646;23.380;2023-04-05T05:49:06;142022.19;;;1.63;100.00
8280;BME280;8335;42.646;23.380;2023-04-05T05:51:33;142055.50;;;1.77;100.00
8280;BME280;8335;42.646;23.380;2023-04-05T05:54:00;142090.06;;;1.91;100.00
8280;BME280;8335;42.646;23.380;2023-04-05T05:56:27;142119.69;;;2.03;100.00
8280;BME280;8335;42.646;23.380;2023-04-05T05:58:53;142174.00;;;2.26;100.00
8280;BME280;8335;42.646;23.380;2023-04-05T06:01:21;142224.59;;;2.46;99.99
8280;BME280;8335;42.646;23.380;2023-04-05T06:03:52;142250.56;;;2.57;99.16
8280;BME280;8335;42.646;23.380;2023-04-05T06:06:19;142290.06;;;2.73;98.33
8280;BME280;8335;42.646;23.380;2023-04-05T06:08:46;142299.91;;;2.78;96.52
8280;BME280;8335;42.646;23.380;2023-04-05T06:11:17;142334.50;;;2.92;96.06
8280;BME280;8335;42.646;23.380;2023-04-05T06:13:45;142349.31;;;2.98;96.09
8280;BME280;8335;42.646;23.380;2023-04-05T06:16:12;142369.06;;;3.06;94.97
8280;BME280;8335;42.646;23.380;2023-04-05T06:18:40;142401.19;;;3.19;95.31
8280;BME280;8335;42.646;23.380;2023-04-05T06:21:07;142419.72;;;3.27;93.75
8280;BME280;8335;42.646;23.380;2023-04-05T06:23:34;142419.72;;;3.27;93.77
8280;BME280;8335;42.646;23.380;2023-04-05T06:26:01;142437.00;;;3.34;92.53
8280;BME280;8335;42.646;23.380;2023-04-05T06:28:28;142455.56;;;3.42;92.12
8280;BME280;8335;42.646;23.380;2023-04-05T06:30:56;142459.28;;;3.43;92.69
8280;BME280;8335;42.646;23.380;2023-04-05T06:33:23;142497.59;;;3.59;90.90
8280;BME280;8335;42.646;23.380;2023-04-05T06:35:52;142514.88;;;3.66;90.48
8280;BME280;8335;42.646;23.380;2023-04-05T06:38:18;142528.50;;;3.72;89.18
8280;BME280;8335;42.646;23.380;2023-04-05T06:40:45;142518.59;;;3.68;89.94
8280;BME280;8335;42.646;23.380;2023-04-05T06:43:12;142545.81;;;3.79;89.48
8280;BME280;8335;42.646;23.380;2023-04-05T06:45:39;142558.13;;;3.84;89.08
8280;BME280;8335;42.646;23.380;2023-04-05T06:48:06;142603.88;;;4.03;89.22
8280;BME280;8335;42.646;23.380;2023-04-05T06:50:33;142582.88;;;3.94;89.27
8280;BME280;8335;42.646;23.380;2023-04-05T06:53:01;142563.09;;;3.86;87.64
8280;BME280;8335;42.646;23.380;2023-04-05T06:55:28;142586.56;;;3.96;88.75
8280;BME280;8335;42.646;23.380;2023-04-05T06:57:55;142617.50;;;4.08;88.29
8280;BME280;8335;42.646;23.380;2023-04-05T07:00:22;142612.50;;;4.06;88.37
8280;BME280;8335;42.646;23.380;2023-04-05T07:02:49;142601.41;;;4.02;85.80
8280;BME280;8335;42.646;23.380;2023-04-05T07:05:16;142612.50;;;4.06;86.54
8280;BME280;8335;42.646;23.380;2023-04-05T07:07:43;142615.03;;;4.07;85.79
8280;BME280;8335;42.646;23.380;2023-04-05T07:10:13;142652.09;;;4.23;85.62
8280;BME280;8335;42.646;23.380;2023-04-05T07:12:40;142666.94;;;4.29;84.81
8280;BME280;8335;42.646;23.380;2023-04-05T07:15:08;142668.19;;;4.29;84.04
8280;BME280;8335;42.646;23.380;2023-04-05T07:17:35;142674.34;;;4.32;83.84
8280;BME280;8335;42.646;23.380;2023-04-05T07:20:02;142730.00;;;4.55;83.82
8280;BME280;8335;42.646;23.380;2023-04-05T07:22:32;142728.75;;;4.54;83.18
8280;BME280;8335;42.646;23.380;2023-04-05T07:25:00;142763.41;;;4.68;82.21
8280;BME280;8335;42.646;23.380;2023-04-05T07:27:28;142773.31;;;4.73;83.49
8280;BME280;8335;42.646;23.380;2023-04-05T07:29:55;142756.00;;;4.65;82.30
8280;BME280;8335;42.646;23.380;2023-04-05T07:32:22;142712.69;;;4.48;82.68
8280;BME280;8335;42.646;23.380;2023-04-05T07:34:49;142707.75;;;4.46;81.95
8280;BME280;8335;42.646;23.380;2023-04-05T07:37:15;142660.75;;;4.26;82.59
8280;BME280;8335;42.646;23.380;2023-04-05T07:39:42;142660.75;;;4.26;82.89
8280;BME280;8335;42.646;23.380;2023-04-05T07:42:09;142678.06;;;4.33;83.49
8280;BME280;8335;42.646;23.380;2023-04-05T07:44:37;142680.53;;;4.34;82.14
8280;BME280;8335;42.646;23.380;2023-04-05T07:47:04;142637.25;;;4.17;82.12
8280;BME280;8335;42.646;23.380;2023-04-05T07:49:30;142642.19;;;4.19;81.45
8280;BME280;8335;42.646;23.380;2023-04-05T07:51:58;142586.56;;;3.96;84.59
8280;BME280;8335;42.646;23.380;2023-04-05T07:54:25;142572.97;;;3.90;83.66
8280;BME280;8335;42.646;23.380;2023-04-05T07:56:52;142544.50;;;3.78;85.04
8280;BME280;8335;42.646;23.380;2023-04-05T07:59:19;142547.03;;;3.79;84.81
8280;BME280;8335;42.646;23.380;2023-04-05T08:01:47;142571.72;;;3.90;85.09
8280;BME280;8335;42.646;23.380;2023-04-05T08:04:14;142556.91;;;3.83;84.85
8280;BME280;8335;42.646;23.380;2023-04-05T08:06:41;142566.81;;;3.88;84.57
8280;BME280;8335;42.646;23.380;2023-04-05T08:09:09;142550.72;;;3.81;85.06
8280;BME280;8335;42.646;23.380;2023-04-05T08:11:36;142582.88;;;3.94;85.22
8280;BME280;8335;42.646;23.380;2023-04-05T08:14:03;142419.72;;;3.27;83.33
8280;BME280;8335;42.646;23.380;2023-04-05T08:16:31;142602.66;;;4.02;82.93
8280;BME280;8335;42.646;23.380;2023-04-05T08:18:59;142596.44;;;4.00;82.30
8280;BME280;8335;42.646;23.380;2023-04-05T08:21:26;142570.50;;;3.89;81.99
8280;BME280;8335;42.646;23.380;2023-04-05T08:23:53;142593.97;;;3.99;82.54
8280;BME280;8335;42.646;23.380;2023-04-05T08:26:20;142543.28;;;3.78;82.64
8280;BME280;8335;42.646;23.380;2023-04-05T08:28:47;142535.88;;;3.75;84.37
8280;BME280;8335;42.646;23.380;2023-04-05T08:31:13;142521.06;;;3.69;83.61
8280;BME280;8335;42.646;23.380;2023-04-05T08:33:40;142529.72;;;3.72;83.79
8280;BME280;8335;42.646;23.380;2023-04-05T08:36:09;142481.53;;;3.52;85.12
8280;BME280;8335;42.646;23.380;2023-04-05T08:38:36;142534.66;;;3.74;84.85
8280;BME280;8335;42.646;23.380;2023-04-05T08:41:07;142521.06;;;3.69;84.86
8280;BME280;8335;42.646;23.380;2023-04-05T08:43:46;142530.97;;;3.73;84.90
8280;BME280;8335;42.646;23.380;2023-04-05T08:46:16;142570.50;;;3.89;83.55
8280;BME280;8335;42.646;23.380;2023-04-05T08:48:43;142570.50;;;3.89;84.15
8280;BME280;8335;42.646;23.380;2023-04-05T08:51:11;142591.50;;;3.98;83.69
8280;BME280;8335;42.646;23.380;2023-04-05T08:53:38;142595.19;;;3.99;82.89
8280;BME280;8335;42.646;23.380;2023-04-05T08:56:06;142593.97;;;3.99;84.19
8280;BME280;8335;42.646;23.380;2023-04-05T08:58:34;142550.72;;;3.81;85.22
8280;BME280;8335;42.646;23.380;2023-04-05T09:01:03;142554.44;;;3.82;84.57
8280;BME280;8335;42.646;23.380;2023-04-05T09:03:34;142584.09;;;3.95;84.10
8280;BME280;8335;42.646;23.380;2023-04-05T09:06:04;142595.19;;;3.99;83.46
8280;BME280;8335;42.646;23.380;2023-04-05T09:08:34;142632.34;;;4.14;84.73
8280;BME280;8335;42.646;23.380;2023-04-05T09:11:01;142660.75;;;4.26;84.73
8280;BME280;8335;42.646;23.380;2023-04-05T09:13:27;142706.50;;;4.45;84.69
8280;BME280;8335;42.646;23.380;2023-04-05T09:15:55;142720.13;;;4.51;85.09
8280;BME280;8335;42.646;23.380;2023-04-05T09:18:22;142756.00;;;4.65;84.30
8280;BME280;8335;42.646;23.380;2023-04-05T09:20:49;142754.75;;;4.65;83.22
8280;BME280;8335;42.646;23.380;2023-04-05T09:23:16;142734.94;;;4.57;81.13
8280;BME280;8335;42.646;23.380;2023-04-05T09:25:44;142737.44;;;4.58;83.50
8280;BME280;8335;42.646;23.380;2023-04-05T09:28:12;142739.91;;;4.59;84.33
8280;BME280;8335;42.646;23.380;2023-04-05T09:30:44;142731.22;;;4.55;83.03
8280;BME280;8335;42.646;23.380;2023-04-05T09:33:15;142758.47;;;4.66;83.16
8280;BME280;8335;42.646;23.380;2023-04-05T09:35:44;142807.94;;;4.87;83.65
8280;BME280;8335;42.646;23.380;2023-04-05T09:38:15;142836.38;;;4.98;82.46
8280;BME280;8335;42.646;23.380;2023-04-05T09:40:44;142862.38;;;5.09;81.25
8280;BME280;8335;42.646;23.380;2023-04-05T09:43:11;142894.56;;;5.22;80.96
8280;BME280;8335;42.646;23.380;2023-04-05T09:45:39;142920.53;;;5.33;79.79
8280;BME280;8335;42.646;23.380;2023-04-05T09:48:07;142950.25;;;5.45;78.17
8280;BME280;8335;42.646;23.380;2023-04-05T09:50:35;142934.16;;;5.39;79.29
8280;BME280;8335;42.646;23.380;2023-04-05T09:53:07;142988.63;;;5.61;78.67
8280;BME280;8335;42.646;23.380;2023-04-05T09:55:34;143041.84;;;5.83;77.51
8280;BME280;8335;42.646;23.380;2023-04-05T09:58:03;143092.66;;;6.04;76.60
8280;BME280;8335;42.646;23.380;2023-04-05T10:00:30;143103.84;;;6.09;76.05
8280;BME280;8335;42.646;23.380;2023-04-05T10:02:57;143140.97;;;6.24;77.16
8280;BME280;8335;42.646;23.380;2023-04-05T10:05:26;143185.53;;;6.42;77.09
8280;BME280;8335;42.646;23.380;2023-04-05T10:07:54;143247.53;;;6.68;73.55
8280;BME280;8335;42.646;23.380;2023-04-05T10:10:22;143330.56;;;7.02;72.63
8280;BME280;8335;42.646;23.380;2023-04-05T10:12:49;143419.81;;;7.38;70.85
8280;BME280;8335;42.646;23.380;2023-04-05T10:15:17;143423.50;;;7.40;70.17
8280;BME280;8335;42.646;23.380;2023-04-05T10:17:50;143433.44;;;7.44;70.31
8280;BME280;8335;42.646;23.380;2023-04-05T10:20:21;143454.53;;;7.53;69.65
8280;BME280;8335;42.646;23.380;2023-04-05T10:23:00;143391.28;;;7.27;68.27
8280;BME280;8335;42.646;23.380;2023-04-05T10:25:39;143321.84;;;6.98;68.18
8280;BME280;8335;42.646;23.380;2023-04-05T10:28:11;143303.28;;;6.90;68.81
8280;BME280;8335;42.646;23.380;2023-04-05T10:30:46;143210.34;;;6.52;68.00
8280;BME280;8335;42.646;23.380;2023-04-05T10:33:19;143159.56;;;6.31;70.92
8280;BME280;8335;42.646;23.380;2023-04-05T10:35:59;143153.38;;;6.29;71.07
8280;BME280;8335;42.646;23.380;2023-04-05T10:38:33;143153.38;;;6.29;69.66
8280;BME280;8335;42.646;23.380;2023-04-05T10:41:08;143050.53;;;5.87;69.66
8280;BME280;8335;42.646;23.380;2023-04-05T10:43:36;143048.03;;;5.86;70.54
8280;BME280;8335;42.646;23.380;2023-04-05T10:46:06;143014.63;;;5.72;72.01
8280;BME280;8335;42.646;23.380;2023-04-05T10:48:39;143055.47;;;5.89;73.41
8280;BME280;8335;42.646;23.380;2023-04-05T10:51:09;143077.81;;;5.98;71.70
8280;BME280;8335;42.646;23.380;2023-04-05T10:53:36;143087.72;;;6.02;72.44
8280;BME280;8335;42.646;23.380;2023-04-05T10:56:04;143072.84;;;5.96;71.00
8280;BME280;8335;42.646;23.380;2023-04-05T10:58:32;143122.41;;;6.16;70.22
8280;BME280;8335;42.646;23.380;2023-04-05T11:01:01;143114.94;;;6.13;71.39
8280;BME280;8335;42.646;23.380;2023-04-05T11:03:48;143128.59;;;6.19;72.31
8280;BME280;8335;42.646;23.380;2023-04-05T11:06:20;143197.94;;;6.47;71.85
8280;BME280;8335;42.646;23.380;2023-04-05T11:08:48;143209.13;;;6.52;70.58
8280;BME280;8335;42.646;23.380;2023-04-05T11:11:17;143245.03;;;6.67;69.75
8280;BME280;8335;42.646;23.380;2023-04-05T11:13:47;143285.94;;;6.83;70.09
8280;BME280;8335;42.646;23.380;2023-04-05T11:16:15;143333.03;;;7.03;69.66
8280;BME280;8335;42.646;23.380;2023-04-05T11:18:45;143341.69;;;7.06;68.65
8280;BME280;8335;42.646;23.380;2023-04-05T11:21:20;143261.16;;;6.73;69.66
8280;BME280;8335;42.646;23.380;2023-04-05T11:24:01;143231.41;;;6.61;69.38
8280;BME280;8335;42.646;23.380;2023-04-05T11:26:31;143342.91;;;7.07;69.02
8280;BME280;8335;42.646;23.380;2023-04-05T11:28:58;143416.09;;;7.37;67.88
8280;BME280;8335;42.646;23.380;2023-04-05T11:31:25;143437.16;;;7.45;68.21
8280;BME280;8335;42.646;23.380;2023-04-05T11:33:57;143403.69;;;7.32;64.99
8280;BME280;8335;42.646;23.380;2023-04-05T11:36:31;143367.75;;;7.17;65.76
8280;BME280;8335;42.646;23.380;2023-04-05T11:39:25;143396.25;;;7.29;66.74
8280;BME280;8335;42.646;23.380;2023-04-05T11:41:55;143443.34;;;7.48;64.36
8280;BME280;8335;42.646;23.380;2023-04-05T11:44:22;143401.22;;;7.31;66.41
8280;BME280;8335;42.646;23.380;2023-04-05T11:46:50;143361.56;;;7.14;65.78
8280;BME280;8335;42.646;23.380;2023-04-05T11:49:20;143267.34;;;6.76;67.15
8280;BME280;8335;42.646;23.380;2023-04-05T11:51:47;143250.00;;;6.69;68.47
8280;BME280;8335;42.646;23.380;2023-04-05T11:54:27;143210.34;;;6.52;68.91
8280;BME280;8335;42.646;23.380;2023-04-05T11:56:54;143162.03;;;6.32;69.15
8280;BME280;8335;42.646;23.380;2023-04-05T11:59:27;143183.06;;;6.41;68.13
8280;BME280;8335;42.646;23.380;2023-04-05T12:01:57;143227.69;;;6.59;67.86
8280;BME280;8335;42.646;23.380;2023-04-05T12:04:25;143222.75;;;6.57;67.24
8280;BME280;8335;42.646;23.380;2023-04-05T12:07:09;143220.25;;;6.56;67.62
8280;BME280;8335;42.646;23.380;2023-04-05T12:09:36;143246.28;;;6.67;68.13
8280;BME280;8335;42.646;23.380;2023-04-05T12:12:20;143288.41;;;6.84;67.00
8280;BME280;8335;42.646;23.380;2023-04-05T12:14:47;143300.78;;;6.89;66.20
8280;BME280;8335;42.646;23.380;2023-04-05T12:17:13;143254.94;;;6.71;67.31
8280;BME280;8335;42.646;23.380;2023-04-05T12:19:42;143289.63;;;6.85;67.72
8280;BME280;8335;42.646;23.380;2023-04-05T12:22:09;143259.91;;;6.73;67.60
8280;BME280;8335;42.646;23.380;2023-04-05T12:24:36;143311.97;;;6.94;67.51
8280;BME280;8335;42.646;23.380;2023-04-05T12:27:03;143310.72;;;6.94;69.18
8280;BME280;8335;42.646;23.380;2023-04-05T12:29:30;143320.63;;;6.98;67.66
8280;BME280;8335;42.646;23.380;2023-04-05T12:31:57;143293.38;;;6.86;67.88
8280;BME280;8335;42.646;23.380;2023-04-05T12:34:23;143266.09;;;6.75;69.75
8280;BME280;8335;42.646;23.380;2023-04-05T12:36:52;143195.47;;;6.46;70.53
8280;BME280;8335;42.646;23.380;2023-04-05T12:39:20;143248.75;;;6.68;69.67
8280;BME280;8335;42.646;23.380;2023-04-05T12:41:55;143236.34;;;6.63;68.80
8280;BME280;8335;42.646;23.380;2023-04-05T12:44:27;143258.69;;;6.72;70.01
8280;BME280;8335;42.646;23.380;2023-04-05T12:46:59;143264.88;;;6.75;70.02
8280;BME280;8335;42.646;23.380;2023-04-05T12:49:26;143299.56;;;6.89;70.61
8280;BME280;8335;42.646;23.380;2023-04-05T12:51:59;143300.78;;;6.89;70.66
8280;BME280;8335;42.646;23.380;2023-04-05T12:54:27;143264.88;;;6.75;69.32
8280;BME280;8335;42.646;23.380;2023-04-05T12:56:55;143292.16;;;6.86;67.57
8280;BME280;8335;42.646;23.380;2023-04-05T12:59:22;143227.69;;;6.59;69.30
8280;BME280;8335;42.646;23.380;2023-04-05T13:01:49;143230.16;;;6.60;69.62
8280;BME280;8335;42.646;23.380;2023-04-05T13:04:16;143237.59;;;6.63;68.10
8280;BME280;8335;42.646;23.380;2023-04-05T13:06:43;143225.22;;;6.58;69.12
8280;BME280;8335;42.646;23.380;2023-04-05T13:09:12;143214.06;;;6.54;68.46
8280;BME280;8335;42.646;23.380;2023-04-05T13:11:39;143129.81;;;6.19;68.66
8280;BME280;8335;42.646;23.380;2023-04-05T13:14:06;143123.63;;;6.17;69.77